Time;durP1;ratioP1;P1;durP2;ratioP2;P2;SDS_P1;SDS_P2;PMS_P1;PMS_P2;Temp;Humidity;BMP_temperature;BMP_pressure;BME280_temperature;BME280_humidity;BME280_pressure;Samples;Min_cycle;Max_cycle;Signal;HPM_P1;HPM_P2
2023/01/06 00:01:14;;;;;;;43.15;18.25;;;10.80;99.90;;;;;;4993003;28;20078;-67
2023/01/06 00:03:40;;;;;;;51.25;21.70;;;10.80;99.90;;;;;;5000059;28;20053;-67
2023/01/06 00:06:08;;;;;;;50.42;20.67;;;10.80;99.90;;;;;;4998982;28;20519;-67
2023/01/06 00:08:34;;;;;;;52.30;21.30;;;10.80;99.90;;;;;;5007038;28;20038;-67
2023/01/06 00:11:05;;;;;;;49.13;22.80;;;10.80;99.90;;;;;;5002866;28;20073;-67
2023/01/06 00:13:31;;;;;;;49.10;20.38;;;10.80;99.90;;;;;;5003453;28;20516;-67
2023/01/06 00:15:56;;;;;;;42.83;20.88;;;10.80;99.90;;;;;;5003860;28;20061;-67
2023/01/06 00:18:22;;;;;;;47.33;20.35;;;10.80;99.90;;;;;;4992992;28;20027;-67
2023/01/06 00:20:47;;;;;;;48.70;18.80;;;10.90;99.90;;;;;;5001220;28;20452;-67
2023/01/06 00:23:14;;;;;;;41.38;19.02;;;10.90;99.90;;;;;;4999956;28;20045;-67
2023/01/06 00:25:47;;;;;;;41.80;18.52;;;10.90;99.90;;;;;;5001812;28;20042;-67
2023/01/06 00:28:12;;;;;;;38.08;17.83;;;10.90;99.90;;;;;;5006824;28;20109;-67
2023/01/06 00:30:38;;;;;;;41.95;18.50;;;10.90;99.90;;;;;;4996244;28;20137;-67
2023/01/06 00:33:03;;;;;;;37.20;17.08;;;10.90;99.90;;;;;;5006592;28;20038;-67
2023/01/06 00:35:29;;;;;;;39.33;16.90;;;10.90;99.90;;;;;;4986953;28;20034;-67
2023/01/06 00:37:55;;;;;;;32.80;15.60;;;10.90;99.90;;;;;;4997481;28;20034;-67
2023/01/06 00:40:20;;;;;;;35.45;16.58;;;10.90;99.90;;;;;;5008763;28;20120;-67
2023/01/06 00:42:46;;;;;;;32.67;16.50;;;10.90;99.90;;;;;;4979726;28;20060;-67
2023/01/06 00:45:11;;;;;;;27.83;13.60;;;10.90;99.90;;;;;;4993110;28;20055;-67
2023/01/06 00:47:37;;;;;;;29.73;14.38;;;10.90;99.90;;;;;;5008891;28;20070;-67
2023/01/06 00:50:03;;;;;;;27.77;14.18;;;10.90;99.90;;;;;;4997443;28;20048;-67
2023/01/06 00:52:28;;;;;;;27.63;14.25;;;10.90;99.90;;;;;;4999679;28;20088;-67
2023/01/06 00:54:54;;;;;;;24.95;12.43;;;10.90;99.90;;;;;;5010941;28;20062;-67
2023/01/06 00:57:19;;;;;;;21.63;10.93;;;10.90;99.90;;;;;;5000276;28;20037;-67
2023/01/06 00:59:45;;;;;;;23.10;13.57;;;10.90;99.90;;;;;;4999820;28;20116;-67
2023/01/06 01:02:11;;;;;;;22.40;10.27;;;10.90;99.90;;;;;;5005156;28;20041;-67
2023/01/06 01:04:36;;;;;;;24.20;10.65;;;10.90;99.90;;;;;;4995676;28;20030;-67
2023/01/06 01:07:02;;;;;;;22.52;10.60;;;10.90;99.90;;;;;;5004962;28;20038;-67
2023/01/06 01:09:30;;;;;;;26.30;12.35;;;10.90;99.90;;;;;;4996928;28;20041;-67
2023/01/06 01:12:08;;;;;;;21.20;12.48;;;10.90;99.90;;;;;;4994805;28;20101;-67
2023/01/06 01:14:37;;;;;;;19.67;10.13;;;10.90;99.90;;;;;;5008530;28;20045;-67
2023/01/06 01:17:03;;;;;;;15.82;10.07;;;10.90;99.90;;;;;;5002984;28;20045;-67
2023/01/06 01:19:29;;;;;;;16.48;10.23;;;11.00;99.90;;;;;;4997941;28;20038;-67
2023/01/06 01:21:55;;;;;;;21.05;10.35;;;10.90;99.90;;;;;;5003569;28;20042;-67
2023/01/06 01:24:21;;;;;;;20.20;10.63;;;10.90;99.90;;;;;;4997498;28;20412;-67
2023/01/06 01:26:47;;;;;;;18.75;10.45;;;10.90;99.90;;;;;;4983995;28;20122;-67
2023/01/06 01:29:16;;;;;;;19.10;10.00;;;10.90;99.90;;;;;;4980607;28;20069;-67
2023/01/06 01:31:42;;;;;;;20.50;10.98;;;10.90;99.90;;;;;;4999974;28;20045;-67
2023/01/06 01:34:10;;;;;;;21.15;10.60;;;10.90;99.90;;;;;;4995058;28;20447;-67
2023/01/06 01:36:35;;;;;;;15.85;9.15;;;10.80;99.90;;;;;;4987291;28;20087;-67
2023/01/06 01:39:01;;;;;;;23.05;10.93;;;10.80;99.90;;;;;;4979801;28;20061;-67
2023/01/06 01:41:28;;;;;;;20.75;10.98;;;10.80;99.90;;;;;;4988917;28;20511;-67
2023/01/06 01:44:00;;;;;;;20.58;10.88;;;10.90;99.90;;;;;;4985253;28;20095;-67
2023/01/06 01:46:39;;;;;;;20.45;11.48;;;10.90;99.90;;;;;;5008016;28;20056;-67
2023/01/06 01:49:13;;;;;;;18.98;10.77;;;10.90;99.90;;;;;;4974175;28;20037;-67
2023/01/06 01:51:41;;;;;;;17.13;9.75;;;10.90;99.90;;;;;;4982538;28;20492;-67
2023/01/06 01:54:13;;;;;;;16.38;10.18;;;10.90;99.90;;;;;;4996854;28;20061;-67
2023/01/06 01:56:43;;;;;;;17.50;9.48;;;10.90;99.90;;;;;;5003723;28;20034;-67
2023/01/06 01:59:13;;;;;;;22.60;10.20;;;10.90;99.90;;;;;;4979665;28;20049;-67
2023/01/06 02:01:38;;;;;;;19.08;10.45;;;10.90;99.90;;;;;;4999440;28;20069;-67
2023/01/06 02:04:05;;;;;;;17.30;9.10;;;10.90;99.90;;;;;;5005113;28;20489;-67
2023/01/06 02:06:31;;;;;;;18.33;9.10;;;10.90;99.90;;;;;;4991912;28;20042;-67
2023/01/06 02:09:00;;;;;;;15.40;10.25;;;10.90;99.90;;;;;;4998669;28;20038;-67
2023/01/06 02:11:28;;;;;;;14.25;9.50;;;10.90;99.90;;;;;;5001653;28;20046;-67
2023/01/06 02:14:13;;;;;;;17.15;9.13;;;10.90;99.90;;;;;;5003609;28;20084;-67
2023/01/06 02:17:14;;;;;;;17.27;9.75;;;10.90;99.90;;;;;;4992806;28;20038;-67
2023/01/06 02:19:55;;;;;;;16.02;10.02;;;10.90;99.90;;;;;;4989964;28;20038;-68
2023/01/06 02:22:29;;;;;;;16.60;10.10;;;10.90;99.90;;;;;;4989052;28;20041;-68
2023/01/06 02:25:20;;;;;;;15.80;8.82;;;10.80;99.90;;;;;;4996069;28;20042;-68
2023/01/06 02:28:29;;;;;;;19.13;9.40;;;10.90;99.90;;;;;;4980422;28;20038;-68
2023/01/06 02:31:26;;;;;;;12.73;7.90;;;10.90;99.90;;;;;;4955887;28;20112;-68
2023/01/06 02:34:26;;;;;;;18.58;8.40;;;10.80;99.90;;;;;;4995019;28;20034;-68
2023/01/06 02:37:05;;;;;;;14.93;9.02;;;10.90;99.90;;;;;;4988675;28;20101;-68
2023/01/06 02:39:57;;;;;;;12.70;8.20;;;10.90;99.90;;;;;;4983218;28;20124;-67
2023/01/06 02:42:36;;;;;;;15.52;8.25;;;10.90;99.90;;;;;;4998179;28;20041;-67
2023/01/06 02:45:25;;;;;;;15.93;9.73;;;10.90;99.90;;;;;;5003905;28;20034;-67
2023/01/06 02:48:16;;;;;;;12.20;7.70;;;10.90;99.90;;;;;;5007066;28;20033;-67
2023/01/06 02:50:50;;;;;;;14.85;8.57;;;10.90;99.90;;;;;;4993189;28;20041;-67
2023/01/06 02:53:38;;;;;;;14.48;9.13;;;10.90;99.90;;;;;;4985176;28;20046;-67
2023/01/06 02:56:04;;;;;;;14.52;9.05;;;10.90;99.90;;;;;;5010107;28;20488;-67
2023/01/06 02:58:56;;;;;;;15.48;9.27;;;10.90;99.90;;;;;;4998145;28;20038;-67
2023/01/06 03:01:43;;;;;;;13.68;8.32;;;10.80;99.90;;;;;;4997424;28;20065;-67
2023/01/06 03:04:16;;;;;;;15.20;9.70;;;10.90;99.90;;;;;;5009039;28;20531;-67
2023/01/06 03:06:46;;;;;;;20.15;9.85;;;10.80;99.90;;;;;;4995377;28;20038;-67
2023/01/06 03:09:15;;;;;;;18.15;10.13;;;10.90;99.90;;;;;;5005292;28;20133;-67
2023/01/06 03:11:44;;;;;;;16.25;10.30;;;10.80;99.90;;;;;;5014274;28;20586;-67
2023/01/06 03:14:34;;;;;;;16.70;10.43;;;10.80;99.90;;;;;;4999796;28;20054;-67
2023/01/06 03:17:00;;;;;;;18.27;11.50;;;10.80;99.90;;;;;;4978381;28;20176;-68
2023/01/06 03:19:26;;;;;;;21.58;13.30;;;10.80;99.90;;;;;;4990688;28;20068;-69
2023/01/06 03:21:53;;;;;;;23.02;13.82;;;10.80;99.90;;;;;;5009775;28;20042;-69
2023/01/06 03:24:19;;;;;;;21.77;14.65;;;10.70;99.90;;;;;;4981778;28;20385;-68
2023/01/06 03:26:47;;;;;;;23.58;16.00;;;10.70;99.90;;;;;;5010428;28;20049;-69
2023/01/06 03:29:15;;;;;;;25.60;16.25;;;10.70;99.90;;;;;;4983672;28;20042;-69
2023/01/06 03:32:09;;;;;;;23.25;15.60;;;10.80;99.90;;;;;;5001093;28;20041;-68
2023/01/06 03:34:43;;;;;;;25.35;15.98;;;10.80;99.90;;;;;;5006722;28;20038;-68
2023/01/06 03:37:42;;;;;;;22.23;16.02;;;10.80;99.90;;;;;;5000499;28;20520;-68
2023/01/06 03:40:24;;;;;;;21.83;16.00;;;10.80;99.90;;;;;;4979918;28;20050;-68
2023/01/06 03:43:12;;;;;;;22.27;14.95;;;10.80;99.90;;;;;;5008976;28;20061;-68
2023/01/06 03:45:55;;;;;;;25.67;15.52;;;10.80;99.90;;;;;;4997784;28;20030;-67
2023/01/06 03:48:33;;;;;;;26.17;15.32;;;10.80;99.90;;;;;;5004277;28;20500;-67
2023/01/06 03:51:46;;;;;;;22.63;14.57;;;10.80;99.90;;;;;;4998994;28;20046;-67
2023/01/06 03:54:24;;;;;;;19.00;12.85;;;10.80;99.90;;;;;;4902849;29;20044;-67
2023/01/06 03:56:57;;;;;;;21.95;14.77;;;10.80;99.90;;;;;;4928535;29;20088;-67
2023/01/06 03:59:27;;;;;;;22.23;15.23;;;10.80;99.90;;;;;;4975196;28;20057;-67
2023/01/06 04:01:53;;;;;;;17.57;13.10;;;10.70;99.90;;;;;;5000226;28;20073;-67
2023/01/06 04:04:19;;;;;;;20.05;13.05;;;10.80;99.90;;;;;;5009709;28;20041;-67
2023/01/06 04:06:45;;;;;;;18.60;13.15;;;10.80;99.90;;;;;;4991783;28;20076;-68
2023/01/06 04:09:11;;;;;;;18.05;12.73;;;10.80;99.90;;;;;;4983299;28;20073;-67
2023/01/06 04:14:21;;;;;;;15.75;12.73;;;10.80;99.90;;;;;;4997724;28;20045;-67
2023/01/06 04:16:47;;;;;;;16.38;11.93;;;10.80;99.90;;;;;;5005046;28;20416;-67
2023/01/06 04:19:12;;;;;;;20.67;12.30;;;10.80;99.90;;;;;;5000004;28;20108;-67
2023/01/06 04:21:38;;;;;;;16.83;11.27;;;10.80;99.90;;;;;;5002433;28;20046;-67
2023/01/06 04:24:04;;;;;;;16.00;11.07;;;10.80;99.90;;;;;;5004394;28;20061;-67
2023/01/06 04:26:29;;;;;;;14.70;10.93;;;10.80;99.90;;;;;;5011521;28;20049;-67
2023/01/06 04:28:55;;;;;;;14.27;10.65;;;10.80;99.90;;;;;;4997620;28;20455;-67
2023/01/06 04:31:21;;;;;;;18.10;10.85;;;10.80;99.90;;;;;;5000190;28;20072;-67
2023/01/06 04:33:46;;;;;;;13.23;9.85;;;10.80;99.90;;;;;;5004993;28;20038;-67
2023/01/06 04:36:13;;;;;;;12.55;9.98;;;10.90;99.90;;;;;;5009238;28;20038;-67
2023/01/06 04:38:38;;;;;;;12.60;9.45;;;10.90;99.90;;;;;;4976338;28;20068;-67
2023/01/06 04:41:04;;;;;;;15.00;10.05;;;10.90;99.90;;;;;;5000552;28;20065;-67
2023/01/06 04:43:30;;;;;;;14.38;8.93;;;10.90;99.90;;;;;;5008894;28;20073;-67
2023/01/06 04:45:59;;;;;;;13.48;8.45;;;10.80;99.90;;;;;;4998047;28;20072;-67
2023/01/06 04:48:25;;;;;;;11.20;9.00;;;10.80;99.90;;;;;;4999957;28;20046;-67
2023/01/06 04:50:59;;;;;;;13.85;9.50;;;10.80;99.90;;;;;;5003915;28;20501;-67
2023/01/06 04:53:25;;;;;;;8.55;7.00;;;10.80;99.90;;;;;;4995741;28;20121;-67
2023/01/06 04:55:51;;;;;;;11.75;7.47;;;10.80;99.90;;;;;;5006847;28;20041;-67
2023/01/06 04:58:16;;;;;;;11.75;7.60;;;10.80;99.90;;;;;;5006779;28;20168;-67
2023/01/06 05:00:42;;;;;;;9.27;7.18;;;10.80;99.90;;;;;;4990765;28;20058;-67
2023/01/06 05:03:07;;;;;;;9.00;6.13;;;10.80;99.90;;;;;;5001293;28;20101;-67
2023/01/06 05:05:33;;;;;;;9.65;6.15;;;10.90;99.90;;;;;;4999580;28;20041;-67
2023/01/06 05:07:58;;;;;;;8.63;5.88;;;10.90;99.90;;;;;;4995258;28;20132;-67
2023/01/06 05:10:24;;;;;;;9.27;6.25;;;10.90;99.90;;;;;;5008141;28;20034;-65
2023/01/06 05:12:49;;;;;;;10.32;6.07;;;10.90;99.90;;;;;;4990163;28;20504;-65
2023/01/06 05:15:15;;;;;;;8.93;6.10;;;10.90;99.90;;;;;;5000349;28;20038;-65
2023/01/06 05:17:41;;;;;;;9.23;5.88;;;10.90;99.90;;;;;;5007107;28;20612;-65
2023/01/06 05:20:07;;;;;;;7.80;5.82;;;11.00;99.90;;;;;;4995655;28;20046;-65
2023/01/06 05:22:32;;;;;;;9.18;5.70;;;10.90;99.90;;;;;;4998554;28;20056;-65
2023/01/06 05:24:58;;;;;;;8.27;5.28;;;10.90;99.90;;;;;;5007203;28;20404;-65
2023/01/06 05:27:23;;;;;;;7.95;5.78;;;10.90;99.90;;;;;;5002578;28;20042;-65
2023/01/06 05:29:49;;;;;;;9.23;5.43;;;11.00;99.90;;;;;;4992412;28;20042;-65
2023/01/06 05:32:15;;;;;;;9.15;5.22;;;10.90;99.90;;;;;;5002338;28;20034;-65
2023/01/06 05:34:40;;;;;;;7.30;5.00;;;10.90;99.90;;;;;;5007857;28;20088;-65
2023/01/06 05:37:06;;;;;;;6.38;5.03;;;10.90;99.90;;;;;;4989948;28;20587;-65
2023/01/06 05:39:31;;;;;;;6.90;5.13;;;10.90;99.90;;;;;;5000525;28;20042;-65
2023/01/06 05:41:57;;;;;;;8.73;5.35;;;11.00;99.90;;;;;;4997119;28;20042;-65
2023/01/06 05:44:22;;;;;;;6.78;4.25;;;11.00;99.90;;;;;;5007219;28;20040;-65
2023/01/06 05:46:48;;;;;;;9.52;5.15;;;11.00;99.90;;;;;;4982878;28;20634;-65
2023/01/06 05:49:14;;;;;;;6.32;4.57;;;11.00;99.90;;;;;;5002441;28;20046;-65
2023/01/06 05:51:39;;;;;;;7.00;5.45;;;11.00;99.90;;;;;;5000863;28;20137;-65
2023/01/06 05:54:08;;;;;;;6.57;5.18;;;11.00;99.90;;;;;;4995864;28;20422;-66
2023/01/06 05:56:34;;;;;;;9.65;5.20;;;11.10;99.90;;;;;;5002744;28;20069;-65
2023/01/06 05:59:01;;;;;;;7.03;4.32;;;11.00;99.90;;;;;;5009336;28;20551;-65
2023/01/06 06:01:30;;;;;;;10.00;4.80;;;11.00;99.90;;;;;;5005826;28;20053;-66
2023/01/06 06:03:56;;;;;;;7.75;4.82;;;10.90;99.90;;;;;;4996891;28;20038;-65
2023/01/06 06:06:23;;;;;;;7.68;4.68;;;10.90;99.90;;;;;;5007013;28;20041;-65
2023/01/06 06:08:49;;;;;;;6.45;4.45;;;10.90;99.90;;;;;;5002389;28;20042;-65
2023/01/06 06:11:16;;;;;;;6.18;4.25;;;11.00;99.90;;;;;;4991979;28;20092;-65
2023/01/06 06:13:49;;;;;;;7.40;4.63;;;10.90;99.90;;;;;;5003079;28;20034;-65
2023/01/06 06:16:17;;;;;;;10.75;4.43;;;10.90;99.90;;;;;;4999366;28;20042;-65
2023/01/06 06:18:46;;;;;;;6.90;4.65;;;11.00;99.90;;;;;;5003952;28;20487;-65
2023/01/06 06:21:15;;;;;;;8.95;4.60;;;11.00;99.90;;;;;;5001266;28;20130;-65
2023/01/06 06:23:41;;;;;;;9.20;4.95;;;10.90;99.90;;;;;;5002913;28;20123;-65
2023/01/06 06:26:08;;;;;;;7.13;4.40;;;10.90;99.90;;;;;;5005101;28;20052;-67
2023/01/06 06:28:34;;;;;;;7.53;4.15;;;10.90;99.90;;;;;;5005180;28;20038;-67
2023/01/06 06:31:12;;;;;;;8.68;4.13;;;10.90;99.90;;;;;;5002994;28;20421;-67
2023/01/06 06:33:38;;;;;;;5.43;4.00;;;10.80;99.90;;;;;;5006655;28;20045;-67
2023/01/06 06:36:05;;;;;;;5.47;4.00;;;10.80;99.90;;;;;;4985711;28;20096;-67
2023/01/06 06:38:31;;;;;;;7.60;4.40;;;10.70;99.90;;;;;;5001434;28;20092;-67
2023/01/06 06:40:56;;;;;;;6.70;4.57;;;10.70;99.90;;;;;;4988914;28;20049;-67
2023/01/06 06:43:22;;;;;;;7.40;4.90;;;10.60;99.90;;;;;;5009706;28;20065;-67
2023/01/06 06:45:48;;;;;;;7.40;5.15;;;10.70;99.90;;;;;;5001492;28;20105;-67
2023/01/06 06:48:14;;;;;;;8.10;5.28;;;10.70;99.90;;;;;;5003782;28;20034;-67
2023/01/06 06:50:40;;;;;;;8.65;5.53;;;10.60;99.90;;;;;;5010365;28;20065;-67
2023/01/06 06:53:06;;;;;;;8.20;5.13;;;10.50;99.90;;;;;;5006158;28;20057;-67
2023/01/06 06:55:32;;;;;;;9.32;6.15;;;10.50;99.90;;;;;;5003296;28;20034;-67
2023/01/06 06:57:58;;;;;;;8.50;5.38;;;10.50;99.90;;;;;;5015457;28;20113;-67
2023/01/06 07:00:24;;;;;;;8.30;5.60;;;10.40;99.90;;;;;;5017427;28;20580;-67
2023/01/06 07:02:50;;;;;;;8.20;5.30;;;10.40;99.90;;;;;;5003127;28;20492;-67
2023/01/06 07:05:16;;;;;;;9.65;5.93;;;10.30;99.90;;;;;;4999785;28;20049;-67
2023/01/06 07:07:43;;;;;;;8.40;5.30;;;10.30;99.90;;;;;;4996756;28;20117;-67
2023/01/06 07:10:14;;;;;;;11.55;5.97;;;10.30;99.90;;;;;;5005784;28;20042;-67
2023/01/06 07:12:39;;;;;;;8.77;6.20;;;10.40;99.90;;;;;;5009213;28;20066;-67
2023/01/06 07:15:06;;;;;;;9.35;5.78;;;10.40;99.90;;;;;;5015510;28;20531;-67
2023/01/06 07:17:31;;;;;;;10.25;6.63;;;10.30;99.90;;;;;;5017509;28;20118;-67
2023/01/06 07:19:57;;;;;;;8.60;5.90;;;10.40;99.90;;;;;;5004703;28;20078;-67
2023/01/06 07:22:22;;;;;;;11.73;6.82;;;10.40;99.90;;;;;;5007922;28;20044;-67
2023/01/06 07:24:48;;;;;;;8.25;6.50;;;10.40;99.90;;;;;;5017143;28;20453;-67
2023/01/06 07:27:14;;;;;;;9.68;7.18;;;10.40;99.90;;;;;;5011318;28;20038;-66
2023/01/06 07:29:39;;;;;;;10.90;6.72;;;10.50;99.90;;;;;;4996420;28;20460;-67
2023/01/06 07:32:05;;;;;;;11.73;6.57;;;10.50;99.90;;;;;;4988533;28;20031;-67
2023/01/06 07:34:31;;;;;;;11.13;6.95;;;10.50;99.90;;;;;;5002676;28;20462;-65
2023/01/06 07:36:56;;;;;;;11.80;6.53;;;10.50;99.90;;;;;;5003637;28;20034;-65
2023/01/06 07:39:22;;;;;;;10.32;7.68;;;10.50;99.90;;;;;;5011450;28;20096;-64
2023/01/06 07:41:48;;;;;;;8.65;6.07;;;10.50;99.90;;;;;;5012673;28;20049;-64
2023/01/06 07:44:13;;;;;;;11.02;6.70;;;10.50;99.90;;;;;;5013337;28;20038;-64
2023/01/06 07:46:39;;;;;;;11.55;7.10;;;10.50;99.90;;;;;;5006784;28;20408;-62
2023/01/06 07:49:04;;;;;;;10.73;7.20;;;10.40;99.90;;;;;;4997649;28;20038;-63
2023/01/06 07:51:30;;;;;;;11.48;7.45;;;10.50;99.90;;;;;;5005818;28;20038;-63
2023/01/06 07:53:55;;;;;;;10.73;7.00;;;10.40;99.90;;;;;;5004293;28;20042;-63
2023/01/06 07:56:22;;;;;;;9.98;7.13;;;10.40;99.90;;;;;;4996350;28;20062;-62
2023/01/06 07:58:48;;;;;;;11.27;6.95;;;10.40;99.90;;;;;;5013964;28;20045;-62
2023/01/06 08:01:14;;;;;;;9.48;6.65;;;10.50;99.90;;;;;;5013721;28;20117;-62
2023/01/06 08:03:39;;;;;;;10.63;6.45;;;10.50;99.90;;;;;;4998486;28;20034;-63
2023/01/06 08:06:10;;;;;;;10.63;6.70;;;10.50;99.90;;;;;;5004118;28;20045;-62
2023/01/06 08:08:36;;;;;;;11.15;7.60;;;10.40;99.90;;;;;;5013811;28;20136;-67
2023/01/06 08:11:03;;;;;;;9.88;7.15;;;10.50;99.90;;;;;;5008407;28;20061;-66
2023/01/06 08:13:28;;;;;;;8.60;6.00;;;10.50;99.90;;;;;;5012797;28;20049;-67
2023/01/06 08:15:54;;;;;;;6.57;5.05;;;10.60;99.90;;;;;;5013608;28;20038;-66
2023/01/06 08:18:20;;;;;;;8.45;5.75;;;10.70;99.90;;;;;;5003724;28;20045;-66
2023/01/06 08:20:45;;;;;;;8.80;6.75;;;10.70;99.90;;;;;;5008603;28;20378;-66
2023/01/06 08:23:11;;;;;;;9.50;6.38;;;10.70;99.90;;;;;;5013175;28;20112;-66
2023/01/06 08:25:36;;;;;;;8.70;6.80;;;10.60;99.90;;;;;;5013538;28;20408;-66
2023/01/06 08:28:02;;;;;;;7.65;5.22;;;10.70;99.90;;;;;;4993097;28;20129;-67
2023/01/06 08:30:28;;;;;;;10.25;5.25;;;10.70;99.90;;;;;;5004661;28;20562;-66
2023/01/06 08:32:58;;;;;;;6.88;4.40;;;10.70;99.90;;;;;;5000647;28;20547;-66
2023/01/06 08:35:24;;;;;;;7.43;4.10;;;10.70;99.90;;;;;;4991612;28;20493;-66
2023/01/06 08:37:50;;;;;;;6.38;3.75;;;10.70;99.90;;;;;;4991749;28;20049;-66
2023/01/06 08:40:15;;;;;;;7.00;3.70;;;10.70;99.90;;;;;;4989777;28;20046;-67
2023/01/06 08:42:41;;;;;;;5.93;2.72;;;10.60;99.90;;;;;;4999971;28;20038;-65
2023/01/06 08:45:07;;;;;;;6.78;3.05;;;10.50;99.90;;;;;;5005647;28;20128;-66
2023/01/06 08:47:33;;;;;;;4.93;2.53;;;10.50;99.90;;;;;;4995586;28;20049;-67
2023/01/06 08:49:59;;;;;;;5.80;2.40;;;10.40;99.90;;;;;;5012504;28;20413;-65
2023/01/06 08:52:24;;;;;;;4.70;2.25;;;10.40;99.90;;;;;;5005903;28;20042;-65
2023/01/06 08:54:50;;;;;;;8.45;3.20;;;10.30;99.90;;;;;;4988536;28;20045;-65
2023/01/06 08:57:16;;;;;;;6.93;2.40;;;10.30;99.90;;;;;;4989511;28;20404;-66
2023/01/06 08:59:41;;;;;;;8.50;2.65;;;10.20;99.90;;;;;;5008881;28;20049;-65
2023/01/06 09:02:09;;;;;;;7.68;2.50;;;10.20;99.90;;;;;;4993817;28;20074;-66
2023/01/06 09:04:35;;;;;;;6.95;2.50;;;10.20;99.90;;;;;;4999584;28;20045;-66
2023/01/06 09:07:00;;;;;;;7.82;2.42;;;10.20;99.90;;;;;;4972414;28;20492;-66
2023/01/06 09:09:26;;;;;;;7.28;2.30;;;10.10;99.90;;;;;;4983487;28;20488;-66
2023/01/06 09:11:51;;;;;;;5.25;2.33;;;10.10;99.90;;;;;;5008381;28;20400;-65
2023/01/06 09:14:17;;;;;;;9.48;2.20;;;10.10;99.90;;;;;;5003310;28;20413;-66
2023/01/06 09:16:43;;;;;;;11.75;2.42;;;10.10;99.90;;;;;;4988229;28;20075;-66
2023/01/06 09:19:09;;;;;;;10.43;2.53;;;10.10;99.90;;;;;;4995984;28;20037;-66
2023/01/06 09:21:35;;;;;;;6.65;1.88;;;10.10;99.90;;;;;;5011997;28;20403;-65
2023/01/06 09:24:01;;;;;;;8.73;2.20;;;10.00;99.90;;;;;;4994897;28;20471;-66
2023/01/06 09:26:27;;;;;;;6.72;2.10;;;10.10;99.90;;;;;;5001269;28;20030;-67
2023/01/06 09:28:52;;;;;;;5.30;1.83;;;10.10;99.90;;;;;;4994749;28;20128;-66
2023/01/06 09:31:18;;;;;;;10.02;2.15;;;10.10;99.90;;;;;;5002831;28;20129;-65
2023/01/06 09:33:44;;;;;;;5.60;2.05;;;10.10;99.90;;;;;;5000178;28;20120;-65
2023/01/06 09:36:09;;;;;;;6.28;1.90;;;10.00;99.90;;;;;;5009424;28;20038;-66
2023/01/06 09:38:35;;;;;;;7.35;2.10;;;10.10;99.90;;;;;;5010841;28;20041;-66
2023/01/06 09:41:18;;;;;;;8.75;1.95;;;10.10;99.90;;;;;;5012006;28;20069;-66
2023/01/06 09:43:44;;;;;;;7.75;1.73;;;10.10;99.90;;;;;;5000087;28;20045;-66
2023/01/06 09:46:13;;;;;;;7.18;2.10;;;10.10;99.90;;;;;;5007748;28;20045;-66
2023/01/06 09:48:45;;;;;;;9.32;1.92;;;10.10;99.90;;;;;;5011588;28;20054;-66
2023/01/06 09:51:17;;;;;;;11.27;2.30;;;10.10;99.90;;;;;;4999158;28;20178;-66
2023/01/06 09:53:48;;;;;;;8.57;1.77;;;10.10;99.90;;;;;;5007964;28;20037;-66
2023/01/06 09:56:16;;;;;;;11.00;2.10;;;10.10;99.90;;;;;;5011596;28;20034;-66
2023/01/06 09:58:53;;;;;;;15.13;2.35;;;10.10;99.90;;;;;;5007546;28;20026;-65
2023/01/06 10:01:27;;;;;;;10.80;1.88;;;10.10;99.90;;;;;;4993418;28;20086;-66
2023/01/06 10:03:55;;;;;;;9.82;1.80;;;10.10;99.90;;;;;;4992686;28;20038;-66
2023/01/06 10:06:32;;;;;;;10.38;1.77;;;10.10;99.90;;;;;;4987563;28;20099;-65
2023/01/06 10:09:27;;;;;;;12.55;1.98;;;10.10;99.90;;;;;;4995734;28;20074;-66
2023/01/06 10:12:05;;;;;;;6.43;1.60;;;10.10;99.90;;;;;;4991523;28;20046;-66
2023/01/06 10:14:54;;;;;;;9.23;2.05;;;10.10;99.90;;;;;;4992897;28;20049;-66
2023/01/06 10:17:27;;;;;;;6.68;1.25;;;10.10;99.90;;;;;;5003620;28;20490;-65
2023/01/06 10:20:15;;;;;;;8.27;1.60;;;10.10;99.90;;;;;;5011264;28;20178;-66
2023/01/06 10:22:53;;;;;;;8.70;1.80;;;10.20;99.90;;;;;;5011563;28;20038;-66
2023/01/06 10:25:21;;;;;;;7.28;1.52;;;10.20;99.90;;;;;;4994623;28;20477;-66
2023/01/06 10:27:55;;;;;;;6.90;1.77;;;10.30;99.90;;;;;;5006044;28;20396;-66
2023/01/06 10:30:33;;;;;;;5.22;1.45;;;10.30;99.90;;;;;;5011851;28;20065;-66
2023/01/06 10:33:00;;;;;;;5.15;1.60;;;10.30;99.90;;;;;;5007355;28;20069;-65
2023/01/06 10:35:27;;;;;;;11.63;1.95;;;10.30;99.90;;;;;;5004421;28;20113;-66
2023/01/06 10:37:54;;;;;;;7.22;1.58;;;10.30;99.90;;;;;;5011046;28;20096;-66
2023/01/06 10:40:26;;;;;;;9.55;1.77;;;10.30;99.90;;;;;;5003988;28;20046;-65
2023/01/06 10:43:02;;;;;;;6.88;1.83;;;10.40;99.90;;;;;;4986119;28;20413;-66
2023/01/06 10:45:34;;;;;;;11.00;2.15;;;10.50;99.90;;;;;;5011247;28;20041;-65
2023/01/06 10:48:02;;;;;;;15.10;1.90;;;10.50;99.90;;;;;;5005216;28;20057;-65
2023/01/06 10:50:27;;;;;;;10.25;2.10;;;10.50;99.90;;;;;;4991631;28;20034;-66
2023/01/06 10:52:53;;;;;;;7.88;1.80;;;10.40;99.90;;;;;;5002529;28;20030;-65
2023/01/06 10:55:25;;;;;;;9.02;1.70;;;10.40;99.90;;;;;;5000659;28;20037;-65
2023/01/06 10:57:53;;;;;;;11.02;2.20;;;10.40;99.90;;;;;;5005242;28;20042;-65
2023/01/06 11:00:22;;;;;;;6.40;1.50;;;10.50;99.90;;;;;;5006860;28;20092;-66
2023/01/06 11:02:50;;;;;;;9.18;2.85;;;10.50;99.90;;;;;;5009286;28;20496;-64
2023/01/06 11:05:22;;;;;;;8.05;1.70;;;10.50;99.90;;;;;;5003100;28;20049;-64
2023/01/06 11:08:11;;;;;;;8.60;1.90;;;10.50;99.90;;;;;;4996148;28;20049;-64
2023/01/06 11:10:50;;;;;;;11.05;2.38;;;10.60;99.90;;;;;;4999093;28;20048;-66
2023/01/06 11:13:24;;;;;;;16.60;2.22;;;10.60;99.90;;;;;;4982185;28;20132;-66
2023/01/06 11:15:50;;;;;;;8.10;1.83;;;10.70;99.90;;;;;;4997023;28;20042;-66
2023/01/06 11:18:21;;;;;;;9.32;2.30;;;10.70;99.90;;;;;;4997477;28;20113;-65
2023/01/06 11:21:03;;;;;;;9.70;2.20;;;10.60;99.90;;;;;;5000676;28;20042;-65
2023/01/06 11:23:29;;;;;;;8.70;1.92;;;10.60;99.90;;;;;;4998456;28;20566;-66
2023/01/06 11:26:11;;;;;;;15.32;1.98;;;10.70;99.90;;;;;;4997874;28;20046;-66
2023/01/06 11:28:38;;;;;;;7.40;1.52;;;10.70;99.90;;;;;;4999894;28;20630;-66
2023/01/06 11:31:18;;;;;;;9.45;1.80;;;10.70;99.90;;;;;;4995412;28;20125;-66
2023/01/06 11:33:59;;;;;;;10.80;2.10;;;10.70;99.90;;;;;;4997350;28;20456;-65
2023/01/06 11:36:28;;;;;;;8.85;1.77;;;10.70;99.90;;;;;;4987184;28;20049;-66
2023/01/06 11:39:00;;;;;;;11.25;1.90;;;10.70;99.90;;;;;;4979743;28;20065;-66
2023/01/06 11:41:34;;;;;;;6.00;1.50;;;10.80;99.90;;;;;;4999288;28;20037;-66
2023/01/06 11:44:14;;;;;;;7.38;1.58;;;10.70;99.90;;;;;;4994414;28;20046;-66
2023/01/06 11:46:47;;;;;;;9.48;1.77;;;10.70;99.90;;;;;;5004662;28;20100;-66
2023/01/06 11:49:22;;;;;;;7.47;1.50;;;10.60;99.90;;;;;;5010493;28;20077;-66
2023/01/06 11:51:49;;;;;;;7.93;1.77;;;10.60;99.90;;;;;;5011143;28;20532;-66
2023/01/06 11:54:24;;;;;;;6.55;1.30;;;10.70;99.90;;;;;;5012222;28;20550;-66
2023/01/06 11:57:34;;;;;;;8.15;1.25;;;10.70;99.90;;;;;;4991805;28;20053;-66
2023/01/06 12:00:18;;;;;;;5.15;1.17;;;10.70;99.90;;;;;;4986906;28;20060;-66
2023/01/06 12:03:06;;;;;;;6.28;1.60;;;10.70;99.90;;;;;;5000367;28;20053;-66
2023/01/06 12:05:38;;;;;;;4.78;1.20;;;10.80;99.90;;;;;;5001883;28;20050;-66
2023/01/06 12:08:23;;;;;;;5.53;1.27;;;10.80;99.90;;;;;;4998527;28;20050;-66
2023/01/06 12:10:59;;;;;;;9.57;1.35;;;10.80;99.90;;;;;;4991591;28;20061;-66
2023/01/06 12:13:26;;;;;;;7.47;1.50;;;10.70;99.90;;;;;;4997673;28;20030;-66
2023/01/06 12:16:02;;;;;;;5.40;1.08;;;10.60;99.90;;;;;;4997798;28;20050;-66
2023/01/06 12:18:31;;;;;;;4.57;1.30;;;10.60;99.90;;;;;;4991929;28;20042;-66
2023/01/06 12:20:59;;;;;;;5.88;1.90;;;10.60;99.90;;;;;;4994373;28;20039;-66
2023/01/06 12:23:30;;;;;;;7.43;1.33;;;10.50;99.90;;;;;;4999474;28;20042;-67
2023/01/06 12:26:00;;;;;;;7.35;1.30;;;10.50;99.90;;;;;;4993858;28;20061;-68
2023/01/06 12:28:33;;;;;;;7.90;1.20;;;10.50;99.90;;;;;;4993144;28;20092;-67
2023/01/06 12:31:17;;;;;;;8.20;1.70;;;10.50;99.90;;;;;;4991675;28;20089;-68
2023/01/06 12:34:04;;;;;;;6.18;1.90;;;10.50;99.90;;;;;;4983264;28;20046;-68
2023/01/06 12:36:52;;;;;;;7.13;1.77;;;10.50;99.90;;;;;;4994742;28;20092;-67
2023/01/06 12:39:34;;;;;;;4.10;1.20;;;10.60;99.90;;;;;;5007253;28;20116;-67
2023/01/06 12:42:21;;;;;;;8.65;1.40;;;10.60;99.90;;;;;;5003362;28;20034;-68
2023/01/06 12:45:14;;;;;;;8.57;1.85;;;10.60;99.90;;;;;;5011621;28;20042;-67
2023/01/06 12:47:47;;;;;;;8.40;1.77;;;10.70;99.90;;;;;;4984455;28;20132;-67
2023/01/06 12:50:37;;;;;;;6.88;1.50;;;10.60;99.90;;;;;;4995202;28;20060;-68
2023/01/06 12:53:31;;;;;;;6.85;1.23;;;10.70;99.90;;;;;;5011274;28;20042;-67
2023/01/06 12:56:31;;;;;;;7.28;1.70;;;10.70;99.90;;;;;;4994797;28;20042;-68
2023/01/06 12:59:05;;;;;;;7.75;1.23;;;10.70;99.90;;;;;;5004482;28;20048;-67